Saint Lawrence, South Dakota
Current Conditions -  °F | °C
As of 6:55 AM on Sunday 23 Nov 2014 (Local Time) from KHON Reporting Station
Overcast Overcast  
Wind Chill: -1°   Ceiling: 6000
Heat Index:   Visibility: 10mi
Dew Point:   Wind: 10mph
Humidity: 89%   Direction: 330°NNW
Pressure: 29.5"   Gusts: NA
Location:  44.52°N, 98.94°W
Report Text: KHON 231255Z AUTO 33009KT 10SM OVC060 03/01 A2950 RMK AO2 SLP999 T00280011
Loading
Personal Weather Stations






























Interactive Weather Map New forecast layout! Learn more

10-Day Weather Forecast

Advertisements
Track Severe Weather on mobile